createdAt,value
2023-05-14T00:00:49.137Z,98949.89
2023-05-14T00:03:16.154Z,98946.91
2023-05-14T00:05:43.053Z,98948.95
2023-05-14T00:08:09.836Z,98950.11
2023-05-14T00:10:36.629Z,98946.87
2023-05-14T00:13:03.356Z,98944.41
2023-05-14T00:15:31.274Z,98940.95
2023-05-14T00:17:59.089Z,98941.63
2023-05-14T00:20:26.141Z,98939.77
2023-05-14T00:22:52.932Z,98937.90
2023-05-14T00:25:19.792Z,98939.25
2023-05-14T00:27:46.661Z,98945.58
2023-05-14T00:30:13.488Z,98946.61
2023-05-14T00:32:40.365Z,98950.26
2023-05-14T00:35:07.424Z,98956.23
2023-05-14T00:37:34.148Z,98955.08
2023-05-14T00:40:00.929Z,98956.03
2023-05-14T00:42:27.982Z,98958.70
2023-05-14T00:44:54.919Z,98949.02
2023-05-14T00:47:22.457Z,98949.08
2023-05-14T00:49:49.380Z,98951.17
2023-05-14T00:52:17.217Z,98951.71
2023-05-14T00:54:47.300Z,98945.14
2023-05-14T00:57:14.178Z,98944.60
2023-05-14T00:59:42.694Z,98948.80
2023-05-14T01:02:09.698Z,98947.58
2023-05-14T01:04:37.796Z,98947.21
2023-05-14T01:07:09.089Z,98947.98
2023-05-14T01:09:52.513Z,98952.40
2023-05-14T01:12:37.370Z,98954.67
2023-05-14T01:15:15.313Z,98954.29
2023-05-14T01:17:46.649Z,98951.23
2023-05-14T01:20:13.600Z,98953.63
2023-05-14T01:22:40.429Z,98951.07
2023-05-14T01:25:07.934Z,98947.83
2023-05-14T01:27:50.203Z,98947.02
2023-05-14T01:30:21.751Z,98947.77
2023-05-14T01:32:51.728Z,98946.99
2023-05-14T01:35:20.226Z,98949.52
2023-05-14T01:37:48.533Z,98952.88
2023-05-14T01:40:15.829Z,98949.86
2023-05-14T01:42:43.917Z,98951.08
2023-05-14T01:45:10.952Z,98947.62
2023-05-14T01:47:37.855Z,98945.41
2023-05-14T01:50:05.081Z,98944.50
2023-05-14T01:52:31.785Z,98944.48
2023-05-14T01:55:00.229Z,98944.77
2023-05-14T01:57:27.122Z,98944.18
2023-05-14T01:59:53.972Z,98943.16
2023-05-14T02:02:20.832Z,98936.81
2023-05-14T02:04:47.783Z,98939.83
2023-05-14T02:07:14.865Z,98940.48
2023-05-14T02:09:42.642Z,98939.27
2023-05-14T02:12:11.183Z,98937.55
2023-05-14T02:14:38.285Z,98938.02
2023-05-14T02:17:05.295Z,98939.52
2023-05-14T02:19:32.090Z,98943.77
2023-05-14T02:22:00.372Z,98940.38
2023-05-14T02:24:27.647Z,98940.59
2023-05-14T02:26:54.448Z,98942.13
2023-05-14T02:29:21.222Z,98937.70
2023-05-14T02:31:48.173Z,98937.97
2023-05-14T02:34:16.316Z,98938.60
2023-05-14T02:36:43.048Z,98938.34
2023-05-14T02:39:09.830Z,98938.80
2023-05-14T02:41:36.734Z,98936.98
2023-05-14T02:44:03.516Z,98935.14
2023-05-14T02:46:35.160Z,98932.70
2023-05-14T02:49:03.205Z,98926.14
2023-05-14T02:51:29.932Z,98926.49
2023-05-14T02:53:56.777Z,98929.41
2023-05-14T02:56:23.544Z,98933.98
2023-05-14T02:58:50.320Z,98934.93
2023-05-14T03:01:18.872Z,98928.30
2023-05-14T03:03:46.233Z,98929.02
2023-05-14T03:06:13.530Z,98926.14
2023-05-14T03:08:40.348Z,98916.83
2023-05-14T03:11:08.282Z,98918.19
2023-05-14T03:13:35.021Z,98916.60
2023-05-14T03:16:01.825Z,98914.88
2023-05-14T03:18:30.642Z,98907.86
2023-05-14T03:20:57.570Z,98899.27
2023-05-14T03:23:24.309Z,98899.16
2023-05-14T03:25:52.670Z,98894.54
2023-05-14T03:28:19.378Z,98895.83
2023-05-14T03:30:46.331Z,98891.86
2023-05-14T03:33:13.146Z,98882.70
2023-05-14T03:35:39.884Z,98895.82
2023-05-14T03:38:07.523Z,98899.41
2023-05-14T03:40:34.577Z,98899.74
2023-05-14T03:43:01.351Z,98908.09
2023-05-14T03:45:30.423Z,98903.08
2023-05-14T03:47:58.773Z,98902.07
2023-05-14T03:50:26.232Z,98899.14
2023-05-14T03:52:53.484Z,98890.73
2023-05-14T03:55:20.935Z,98887.19
2023-05-14T03:57:48.589Z,98887.01
2023-05-14T04:00:15.752Z,98891.45
2023-05-14T04:02:43.841Z,98891.46
2023-05-14T04:05:10.929Z,98888.98
2023-05-14T04:07:37.727Z,98884.54
2023-05-14T04:10:05.803Z,98884.09
2023-05-14T04:12:34.970Z,98883.42
2023-05-14T04:15:02.656Z,98884.01
2023-05-14T04:17:29.503Z,98885.05
2023-05-14T04:19:56.906Z,98887.51
2023-05-14T04:22:24.485Z,98888.89
2023-05-14T04:24:51.722Z,98882.90
2023-05-14T04:27:22.224Z,98884.23
2023-05-14T04:29:49.819Z,98887.60
2023-05-14T04:32:17.793Z,98889.21
2023-05-14T04:34:44.714Z,98885.41
2023-05-14T04:37:11.557Z,98887.79
2023-05-14T04:39:38.443Z,98883.98
2023-05-14T04:42:06.779Z,98882.44
2023-05-14T04:44:34.871Z,98882.89
2023-05-14T04:47:02.380Z,98880.19
2023-05-14T04:49:29.530Z,98882.06
2023-05-14T04:51:56.258Z,98880.20
2023-05-14T04:54:23.103Z,98884.50
2023-05-14T04:56:50.385Z,98879.01
2023-05-14T04:59:17.169Z,98875.45
2023-05-14T05:01:44.029Z,98870.58
2023-05-14T05:04:10.876Z,98866.73
2023-05-14T05:06:38.068Z,98862.36
2023-05-14T05:09:04.837Z,98869.52
2023-05-14T05:11:31.619Z,98863.77
2023-05-14T05:13:58.400Z,98867.14
2023-05-14T05:16:25.561Z,98867.58
2023-05-14T05:18:52.566Z,98865.13
2023-05-14T05:21:19.376Z,98867.31
2023-05-14T05:23:46.216Z,98858.90
2023-05-14T05:26:12.979Z,98851.88
2023-05-14T05:28:39.697Z,98846.42
2023-05-14T05:31:06.548Z,98849.53
2023-05-14T05:33:34.588Z,98844.46
2023-05-14T05:36:01.306Z,98840.74
2023-05-14T05:38:28.162Z,98841.61
2023-05-14T05:40:54.857Z,98840.46
2023-05-14T05:43:21.618Z,98841.20
2023-05-14T05:45:48.383Z,98834.79
2023-05-14T05:48:15.127Z,98831.27
2023-05-14T05:50:42.897Z,98831.05
2023-05-14T05:53:09.690Z,98833.33
2023-05-14T05:55:36.612Z,98833.83
2023-05-14T05:58:03.514Z,98835.11
2023-05-14T06:00:31.252Z,98839.45
2023-05-14T06:02:58.048Z,98842.71
2023-05-14T06:05:25.029Z,98841.73
2023-05-14T06:07:53.637Z,98837.48
2023-05-14T06:10:20.685Z,98836.33
2023-05-14T06:12:47.803Z,98835.48
2023-05-14T06:15:14.573Z,98829.20
2023-05-14T06:17:41.569Z,98828.80
2023-05-14T06:20:09.046Z,98821.45
2023-05-14T06:22:35.917Z,98815.39
2023-05-14T06:25:02.662Z,98808.23
2023-05-14T06:27:29.995Z,98810.19
2023-05-14T06:29:58.116Z,98806.34
2023-05-14T06:32:24.906Z,98812.02
2023-05-14T06:34:51.652Z,98819.17
2023-05-14T06:37:18.424Z,98815.63
2023-05-14T06:39:57.959Z,98813.02
2023-05-14T06:42:25.003Z,98813.11
2023-05-14T06:44:52.098Z,98807.73
2023-05-14T06:47:18.847Z,98804.05
2023-05-14T06:49:45.645Z,98804.66
2023-05-14T06:52:12.396Z,98802.52
2023-05-14T06:54:39.554Z,98799.48
2023-05-14T06:57:06.333Z,98805.52
2023-05-14T06:59:33.359Z,98804.48
2023-05-14T07:02:00.153Z,98805.66
2023-05-14T07:04:27.071Z,98796.41
2023-05-14T07:06:54.009Z,98796.33
2023-05-14T07:09:20.960Z,98794.49
2023-05-14T07:11:48.278Z,98795.73
2023-05-14T07:14:15.092Z,98797.80
2023-05-14T07:16:42.788Z,98793.58
2023-05-14T07:19:09.599Z,98794.02
2023-05-14T07:21:36.440Z,98792.77
2023-05-14T07:24:03.293Z,98795.45
2023-05-14T07:26:30.497Z,98800.63
2023-05-14T07:28:57.471Z,98804.56
2023-05-14T07:31:24.266Z,98809.56
2023-05-14T07:33:51.110Z,98817.38
2023-05-14T07:36:19.146Z,98821.50
2023-05-14T07:38:45.948Z,98823.50
2023-05-14T07:41:12.763Z,98823.58
2023-05-14T07:43:40.579Z,98827.39
2023-05-14T07:46:07.459Z,98824.27
2023-05-14T07:48:35.779Z,98817.14
2023-05-14T07:51:02.597Z,98809.74
2023-05-14T07:53:29.695Z,98804.84
2023-05-14T07:55:56.475Z,98800.69
2023-05-14T07:58:23.601Z,98796.64
2023-05-14T08:00:50.628Z,98784.84
2023-05-14T08:03:17.533Z,98777.73
2023-05-14T08:05:44.972Z,98774.17
2023-05-14T08:08:12.626Z,98777.77
2023-05-14T08:10:39.411Z,98770.65
2023-05-14T08:13:06.205Z,98771.10
2023-05-14T08:15:32.944Z,98764.33
2023-05-14T08:18:03.689Z,98760.25
2023-05-14T08:20:31.197Z,98760.98
2023-05-14T08:22:58.167Z,98762.50
2023-05-14T08:25:25.120Z,98755.52
2023-05-14T08:27:53.699Z,98753.79
2023-05-14T08:30:21.863Z,98744.30
2023-05-14T08:32:48.861Z,98738.34
2023-05-14T08:35:16.192Z,98736.65
2023-05-14T08:37:43.138Z,98723.92
2023-05-14T08:40:10.477Z,98725.65
2023-05-14T08:42:40.868Z,98722.80
2023-05-14T08:45:15.612Z,98723.33
2023-05-14T08:47:45.087Z,98719.31
2023-05-14T08:50:12.224Z,98721.45
2023-05-14T08:52:39.765Z,98719.73
2023-05-14T08:55:07.977Z,98722.77
2023-05-14T08:57:35.401Z,98718.86
2023-05-14T09:00:08.668Z,98717.42
2023-05-14T09:02:36.745Z,98712.41
2023-05-14T09:05:04.250Z,98708.61
2023-05-14T09:07:31.188Z,98700.55
2023-05-14T09:09:58.886Z,98702.21
2023-05-14T09:12:25.652Z,98696.70
2023-05-14T09:14:52.472Z,98701.38
2023-05-14T09:17:19.798Z,98702.30
2023-05-14T09:19:49.152Z,98698.45
2023-05-14T09:22:17.646Z,98697.96
2023-05-14T09:24:44.887Z,98696.02
2023-05-14T09:27:20.917Z,98697.70
2023-05-14T09:29:48.215Z,98697.11
2023-05-14T09:32:14.944Z,98696.64
2023-05-14T09:34:42.361Z,98692.92
2023-05-14T09:37:09.732Z,98693.63
2023-05-14T09:39:38.288Z,98684.57
2023-05-14T09:42:05.728Z,98694.84
2023-05-14T09:44:32.772Z,98691.22
2023-05-14T09:46:59.844Z,98694.55
2023-05-14T09:49:26.780Z,98690.63
2023-05-14T09:51:53.669Z,98690.98
2023-05-14T09:54:20.498Z,98681.77
2023-05-14T09:56:47.645Z,98674.55
2023-05-14T09:59:14.440Z,98674.89
2023-05-14T10:01:43.696Z,98670.88
2023-05-14T10:04:11.884Z,98662.06
2023-05-14T10:06:40.003Z,98659.91
2023-05-14T10:09:13.191Z,98661.92
2023-05-14T10:11:43.888Z,98655.29
2023-05-14T10:14:18.720Z,98652.68
2023-05-14T10:16:49.845Z,98646.46
2023-05-14T10:19:18.605Z,98638.94
2023-05-14T10:21:49.932Z,98634.27
2023-05-14T10:24:18.279Z,98633.01
2023-05-14T10:26:45.548Z,98627.44
2023-05-14T10:29:13.059Z,98628.95
2023-05-14T10:31:47.954Z,98629.84
2023-05-14T10:34:45.786Z,98626.62
2023-05-14T10:37:14.928Z,98621.23
2023-05-14T10:39:43.709Z,98621.66
2023-05-14T10:42:15.561Z,98620.84
2023-05-14T10:44:48.689Z,98620.73
2023-05-14T10:47:18.041Z,98610.59
2023-05-14T10:49:46.154Z,98608.56
2023-05-14T10:52:13.061Z,98607.85
2023-05-14T10:54:40.627Z,98599.34
2023-05-14T10:57:12.195Z,98598.02
2023-05-14T10:59:42.248Z,98598.18
2023-05-14T11:02:25.148Z,98594.80
2023-05-14T11:05:24.029Z,98591.90
2023-05-14T11:07:52.502Z,98585.58
2023-05-14T11:10:22.105Z,98584.88
2023-05-14T11:12:51.052Z,98585.59
2023-05-14T11:15:21.236Z,98586.41
2023-05-14T11:17:49.630Z,98586.41
2023-05-14T11:20:17.524Z,98584.05
2023-05-14T11:22:46.141Z,98576.73
2023-05-14T11:25:14.810Z,98571.48
2023-05-14T11:27:43.943Z,98567.98
2023-05-14T11:30:20.094Z,98569.16
2023-05-14T11:32:48.237Z,98566.58
2023-05-14T11:35:15.593Z,98568.80
2023-05-14T11:37:43.600Z,98566.29
2023-05-14T11:40:16.948Z,98563.50
2023-05-14T11:42:43.762Z,98570.66
2023-05-14T11:45:13.226Z,98572.42
2023-05-14T11:47:41.982Z,98568.63
2023-05-14T11:50:09.854Z,98571.05
2023-05-14T11:52:40.484Z,98568.42
2023-05-14T11:55:11.994Z,98567.39
2023-05-14T11:57:39.155Z,98560.81
2023-05-14T12:00:09.249Z,98553.27
2023-05-14T12:02:37.717Z,98548.23
2023-05-14T12:05:07.363Z,98544.59
2023-05-14T12:07:34.070Z,98540.45
2023-05-14T12:10:03.460Z,98531.77
2023-05-14T12:12:36.126Z,98530.44
2023-05-14T12:15:10.351Z,98529.71
2023-05-14T12:17:38.044Z,98522.85
2023-05-14T12:20:08.334Z,98519.04
2023-05-14T12:22:36.998Z,98513.34
2023-05-14T12:25:04.254Z,98514.71
2023-05-14T12:27:31.145Z,98507.63
2023-05-14T12:30:19.049Z,98501.38
2023-05-14T12:32:48.993Z,98498.57
2023-05-14T12:35:16.148Z,98492.38
2023-05-14T12:37:43.098Z,98486.19
2023-05-14T12:40:10.371Z,98478.65
2023-05-14T12:42:37.389Z,98482.41
2023-05-14T12:45:21.790Z,98475.71
2023-05-14T12:47:48.861Z,98470.71
2023-05-14T12:50:16.577Z,98470.61
2023-05-14T12:52:43.328Z,98465.02
2023-05-14T12:55:10.173Z,98462.15
2023-05-14T12:57:39.435Z,98453.66
2023-05-14T13:00:08.433Z,98463.06
2023-05-14T13:02:43.870Z,98459.15
2023-05-14T13:05:12.693Z,98455.38
2023-05-14T13:07:39.624Z,98448.70
2023-05-14T13:10:07.135Z,98448.55
2023-05-14T13:12:34.237Z,98443.45
2023-05-14T13:15:01.152Z,98441.21
2023-05-14T13:17:28.105Z,98437.98
2023-05-14T13:19:54.916Z,98441.13
2023-05-14T13:22:21.636Z,98441.20
2023-05-14T13:24:48.388Z,98440.73
2023-05-14T13:27:15.200Z,98443.36
2023-05-14T13:29:42.327Z,98440.68
2023-05-14T13:32:09.072Z,98431.81
2023-05-14T13:34:36.368Z,98425.75
2023-05-14T13:37:04.000Z,98418.59
2023-05-14T13:39:30.926Z,98415.50
2023-05-14T13:41:57.742Z,98405.91
2023-05-14T13:44:24.524Z,98400.34
2023-05-14T13:46:51.400Z,98394.98
2023-05-14T13:49:18.666Z,98402.84
2023-05-14T13:51:45.443Z,98407.39
2023-05-14T13:54:12.245Z,98408.59
2023-05-14T13:56:38.940Z,98395.45
2023-05-14T13:59:06.036Z,98390.04
2023-05-14T14:01:32.921Z,98386.69
2023-05-14T14:03:59.763Z,98377.22
2023-05-14T14:06:27.528Z,98370.76
2023-05-14T14:08:54.464Z,98371.52
2023-05-14T14:11:21.966Z,98364.46
2023-05-14T14:13:48.798Z,98365.80
2023-05-14T14:16:16.278Z,98357.45
2023-05-14T14:18:43.494Z,98359.02
2023-05-14T14:21:10.840Z,98358.88
2023-05-14T14:23:37.647Z,98350.02
2023-05-14T14:26:04.458Z,98344.36
2023-05-14T14:28:31.435Z,98342.95
2023-05-14T14:30:58.629Z,98346.73
2023-05-14T14:33:25.771Z,98350.89
2023-05-14T14:35:52.925Z,98349.85
2023-05-14T14:38:19.776Z,98348.02
2023-05-14T14:40:46.948Z,98347.77
2023-05-14T14:43:13.742Z,98348.95
2023-05-14T14:45:40.622Z,98348.69
2023-05-14T14:48:26.904Z,98337.43
2023-05-14T14:50:54.945Z,98336.81
2023-05-14T14:53:23.187Z,98332.23
2023-05-14T14:55:50.956Z,98329.05
2023-05-14T14:58:19.382Z,98323.05
2023-05-14T15:00:47.161Z,98311.76
2023-05-14T15:03:15.257Z,98302.09
2023-05-14T15:05:42.602Z,98294.60
2023-05-14T15:08:09.820Z,98292.13
2023-05-14T15:10:38.345Z,98291.78
2023-05-14T15:13:06.289Z,98289.70
2023-05-14T15:15:34.365Z,98287.23
2023-05-14T15:18:02.049Z,98287.08
2023-05-14T15:20:29.791Z,98290.75
2023-05-14T15:22:56.558Z,98295.27
2023-05-14T15:25:24.722Z,98295.28
2023-05-14T15:27:51.713Z,98296.89
2023-05-14T15:30:18.936Z,98296.39
2023-05-14T15:32:46.765Z,98302.92
2023-05-14T15:35:13.921Z,98293.25
2023-05-14T15:37:44.286Z,98290.61
2023-05-14T15:40:12.085Z,98287.36
2023-05-14T15:42:42.154Z,98287.33
2023-05-14T15:45:10.868Z,98284.73
2023-05-14T15:47:44.626Z,98283.39
2023-05-14T15:50:11.749Z,98278.23
2023-05-14T15:52:39.390Z,98280.31
2023-05-14T15:55:06.790Z,98279.68
2023-05-14T15:57:34.497Z,98278.86
2023-05-14T16:00:01.563Z,98274.07
2023-05-14T16:02:33.373Z,98269.92
2023-05-14T16:05:00.280Z,98266.86
2023-05-14T16:07:27.076Z,98257.98
2023-05-14T16:09:53.939Z,98253.95
2023-05-14T16:12:20.890Z,98246.23
2023-05-14T16:14:47.583Z,98245.73
2023-05-14T16:17:14.448Z,98246.33
2023-05-14T16:19:41.518Z,98247.30
2023-05-14T16:22:08.282Z,98246.91
2023-05-14T16:24:35.078Z,98248.64
2023-05-14T16:27:01.836Z,98247.54
2023-05-14T16:29:28.594Z,98247.39
2023-05-14T16:31:55.513Z,98247.69
2023-05-14T16:34:22.335Z,98248.13
2023-05-14T16:36:49.201Z,98242.02
2023-05-14T16:39:16.577Z,98248.44
2023-05-14T16:41:43.298Z,98242.61
2023-05-14T16:44:10.076Z,98243.17
2023-05-14T16:46:36.927Z,98236.96
2023-05-14T16:49:03.765Z,98235.48
2023-05-14T16:51:30.679Z,98236.50
2023-05-14T16:53:57.429Z,98235.20
2023-05-14T16:56:24.218Z,98236.62
2023-05-14T16:58:50.920Z,98235.52
2023-05-14T17:01:17.645Z,98234.18
2023-05-14T17:03:45.861Z,98230.17
2023-05-14T17:06:12.689Z,98230.95
2023-05-14T17:08:39.408Z,98230.94
2023-05-14T17:11:06.262Z,98232.88
2023-05-14T17:13:33.444Z,98231.88
2023-05-14T17:16:00.933Z,98227.99
2023-05-14T17:18:28.344Z,98228.36
2023-05-14T17:20:55.377Z,98221.45
2023-05-14T17:23:22.095Z,98221.90
2023-05-14T17:25:48.954Z,98215.39
2023-05-14T17:28:16.448Z,98215.33
2023-05-14T17:30:43.181Z,98212.72
2023-05-14T17:33:09.954Z,98211.07
2023-05-14T17:35:37.361Z,98211.81
2023-05-14T17:38:04.171Z,98208.77
2023-05-14T17:40:30.919Z,98211.36
2023-05-14T17:42:57.759Z,98215.29
2023-05-14T17:45:24.990Z,98216.78
2023-05-14T17:47:52.444Z,98216.20
2023-05-14T17:50:20.183Z,98221.89
2023-05-14T17:52:47.652Z,98216.44
2023-05-14T17:55:14.577Z,98219.73
2023-05-14T17:57:42.280Z,98217.80
2023-05-14T18:00:09.607Z,98220.98
2023-05-14T18:02:37.826Z,98225.88
2023-05-14T18:05:05.534Z,98223.17
2023-05-14T18:07:32.345Z,98232.70
2023-05-14T18:09:59.350Z,98235.90
2023-05-14T18:12:26.921Z,98238.90
2023-05-14T18:14:54.039Z,98240.35
2023-05-14T18:17:21.059Z,98235.68
2023-05-14T18:19:48.304Z,98241.92
2023-05-14T18:22:16.103Z,98252.39
2023-05-14T18:24:44.332Z,98261.31
2023-05-14T18:27:11.336Z,98258.35
2023-05-14T18:29:38.357Z,98254.95
2023-05-14T18:32:05.591Z,98245.50
2023-05-14T18:34:35.115Z,98249.40
2023-05-14T18:37:01.853Z,98250.30
2023-05-14T18:39:28.558Z,98253.58
2023-05-14T18:41:56.586Z,98254.50
2023-05-14T18:44:23.691Z,98263.70
2023-05-14T18:46:56.568Z,98265.48
2023-05-14T18:49:23.399Z,98263.92
2023-05-14T18:51:50.157Z,98268.20
2023-05-14T18:54:16.942Z,98269.36
2023-05-14T18:56:47.482Z,98271.16
2023-05-14T18:59:14.671Z,98269.10
2023-05-14T19:01:41.533Z,98260.40
2023-05-14T19:04:08.628Z,98257.93
2023-05-14T19:06:36.225Z,98254.60
2023-05-14T19:09:04.352Z,98256.11
2023-05-14T19:11:46.648Z,98256.00
2023-05-14T19:14:13.522Z,98257.98
2023-05-14T19:16:41.022Z,98267.23
2023-05-14T19:19:08.753Z,98271.90
2023-05-14T19:21:35.693Z,98277.56
2023-05-14T19:24:02.537Z,98283.41
2023-05-14T19:26:29.419Z,98283.08
2023-05-14T19:28:58.601Z,98285.54
2023-05-14T19:31:26.531Z,98287.93
2023-05-14T19:33:54.176Z,98283.66
2023-05-14T19:36:23.552Z,98280.64
2023-05-14T19:38:50.762Z,98285.85
2023-05-14T19:41:17.509Z,98287.30
2023-05-14T19:43:44.313Z,98282.75
2023-05-14T19:46:11.156Z,98280.21
2023-05-14T19:48:38.880Z,98275.48
2023-05-14T19:51:05.652Z,98275.04
2023-05-14T19:53:32.412Z,98272.69
2023-05-14T19:56:00.135Z,98269.06
2023-05-14T19:58:26.868Z,98263.87
2023-05-14T20:00:56.779Z,98266.75
2023-05-14T20:03:26.134Z,98268.08
2023-05-14T20:05:54.096Z,98263.50
2023-05-14T20:08:26.504Z,98264.75
2023-05-14T20:10:53.255Z,98269.27
2023-05-14T20:13:20.141Z,98267.48
2023-05-14T20:15:47.188Z,98264.73
2023-05-14T20:18:14.336Z,98257.64
2023-05-14T20:20:42.823Z,98261.77
2023-05-14T20:23:09.801Z,98256.66
2023-05-14T20:25:36.582Z,98252.69
2023-05-14T20:28:04.479Z,98244.59
2023-05-14T20:30:31.257Z,98239.75
2023-05-14T20:32:58.306Z,98233.91
2023-05-14T20:35:25.266Z,98228.78
2023-05-14T20:37:52.097Z,98224.50
2023-05-14T20:40:19.323Z,98214.47
2023-05-14T20:42:46.092Z,98206.89
2023-05-14T20:45:12.982Z,98198.55
2023-05-14T20:47:40.473Z,98188.38
2023-05-14T20:50:07.772Z,98176.80
2023-05-14T20:52:34.594Z,98163.45
2023-05-14T20:55:04.585Z,98148.48
2023-05-14T20:57:31.939Z,98142.11
2023-05-14T20:59:58.655Z,98133.84
2023-05-14T21:02:25.713Z,98127.45
2023-05-14T21:04:52.848Z,98112.55
2023-05-14T21:07:19.756Z,98102.68
2023-05-14T21:09:51.012Z,98099.34
2023-05-14T21:12:19.284Z,98094.13
2023-05-14T21:14:46.356Z,98082.46
2023-05-14T21:17:13.100Z,98070.79
2023-05-14T21:19:39.846Z,98069.56
2023-05-14T21:22:06.893Z,98065.98
2023-05-14T21:24:33.614Z,98060.94
2023-05-14T21:27:00.449Z,98065.78
2023-05-14T21:29:27.389Z,98066.55
2023-05-14T21:31:54.193Z,98061.78
2023-05-14T21:34:20.995Z,98064.67
2023-05-14T21:36:47.951Z,98068.89
2023-05-14T21:39:14.972Z,98069.63
2023-05-14T21:41:41.736Z,98069.86
2023-05-14T21:44:08.529Z,98068.64
2023-05-14T21:46:37.694Z,98068.88
2023-05-14T21:49:04.636Z,98064.64
2023-05-14T21:51:32.179Z,98058.21
2023-05-14T21:53:59.279Z,98047.31
2023-05-14T21:56:26.435Z,98042.48
2023-05-14T21:58:55.537Z,98040.35
2023-05-14T22:01:22.463Z,98038.49
2023-05-14T22:03:49.262Z,98039.06
2023-05-14T22:06:16.243Z,98028.05
2023-05-14T22:08:43.065Z,98018.92
2023-05-14T22:11:09.753Z,98016.38
2023-05-14T22:13:40.853Z,98013.74
2023-05-14T22:16:13.287Z,98014.02
2023-05-14T22:18:40.963Z,98012.19
2023-05-14T22:21:07.840Z,98012.96
2023-05-14T22:23:34.667Z,98008.91
2023-05-14T22:26:01.675Z,98003.27
2023-05-14T22:28:28.512Z,97994.13
2023-05-14T22:30:56.569Z,97989.52
2023-05-14T22:33:23.440Z,97987.95
2023-05-14T22:35:50.631Z,97984.00
2023-05-14T22:38:17.533Z,97979.61
2023-05-14T22:40:44.244Z,97972.40
2023-05-14T22:43:10.946Z,97976.02
2023-05-14T22:45:37.693Z,97976.38
2023-05-14T22:48:04.559Z,97975.34
2023-05-14T22:50:31.427Z,97974.90
2023-05-14T22:52:58.186Z,97973.08
2023-05-14T22:55:25.120Z,97972.68
2023-05-14T22:57:52.180Z,97969.64
2023-05-14T23:00:18.893Z,97962.42
2023-05-14T23:02:45.838Z,97960.48
2023-05-14T23:05:12.630Z,97958.73
2023-05-14T23:07:39.620Z,97959.76
2023-05-14T23:10:06.908Z,97954.91
2023-05-14T23:12:33.723Z,97940.09
2023-05-14T23:15:00.510Z,97931.50
2023-05-14T23:17:27.479Z,97923.50
2023-05-14T23:19:54.538Z,97924.73
2023-05-14T23:22:21.297Z,97926.88
2023-05-14T23:24:47.996Z,97923.13
2023-05-14T23:27:14.872Z,97920.67
2023-05-14T23:29:41.696Z,97914.48
2023-05-14T23:32:08.634Z,97905.88
2023-05-14T23:34:35.548Z,97903.08
2023-05-14T23:37:02.572Z,97900.27
2023-05-14T23:39:29.384Z,97895.32
2023-05-14T23:41:56.093Z,97894.40
2023-05-14T23:44:23.670Z,97894.85
2023-05-14T23:46:50.786Z,97897.65
2023-05-14T23:49:17.573Z,97897.13
2023-05-14T23:51:44.391Z,97893.35
2023-05-14T23:54:11.795Z,97890.50
2023-05-14T23:56:38.859Z,97888.87
2023-05-14T23:59:06.528Z,97886.14
